createdAt,value
2023-02-21T00:00:49.811Z,29.18
2023-02-21T00:03:38.897Z,29.73
2023-02-21T00:06:30.912Z,30.16
2023-02-21T00:09:19.811Z,30.49
2023-02-21T00:12:09.896Z,30.23
2023-02-21T00:14:59.369Z,30.50
2023-02-21T00:17:48.552Z,30.55
2023-02-21T00:20:37.768Z,29.87
2023-02-21T00:23:27.096Z,30.04
2023-02-21T00:26:16.493Z,30.68
2023-02-21T00:29:05.670Z,31.10
2023-02-21T00:31:55.061Z,30.96
2023-02-21T00:34:43.949Z,30.54
2023-02-21T00:37:33.316Z,29.89
2023-02-21T00:40:22.663Z,30.73
2023-02-21T00:43:12.005Z,31.02
2023-02-21T00:46:01.240Z,30.58
2023-02-21T00:48:51.158Z,30.61
2023-02-21T00:51:40.699Z,31.51
2023-02-21T00:54:30.034Z,30.29
2023-02-21T00:57:19.432Z,31.32
2023-02-21T01:00:08.339Z,29.74
2023-02-21T01:02:57.358Z,28.24
2023-02-21T01:05:46.393Z,29.02
2023-02-21T01:08:35.875Z,28.10
2023-02-21T01:11:25.078Z,28.22
2023-02-21T01:14:14.995Z,29.88
2023-02-21T01:17:12.894Z,29.84
2023-02-21T01:20:03.004Z,31.50
2023-02-21T01:22:52.383Z,31.50
2023-02-21T01:25:48.559Z,31.59
2023-02-21T01:28:37.932Z,31.56
2023-02-21T01:31:27.286Z,30.56
2023-02-21T01:34:16.315Z,29.79
2023-02-21T01:37:05.268Z,29.86
2023-02-21T01:39:54.905Z,30.06
2023-02-21T01:42:47.031Z,29.94
2023-02-21T01:45:42.526Z,31.71
2023-02-21T01:48:39.118Z,30.77
2023-02-21T01:51:30.437Z,31.56
2023-02-21T01:54:20.195Z,31.44
2023-02-21T01:57:09.978Z,32.03
2023-02-21T01:59:59.307Z,29.48
2023-02-21T02:02:57.320Z,28.89
2023-02-21T02:05:48.125Z,29.31
2023-02-21T02:08:38.748Z,28.92
2023-02-21T02:11:53.003Z,29.12
2023-02-21T02:14:37.140Z,28.88
2023-02-21T02:17:21.973Z,28.63
2023-02-21T02:20:26.860Z,28.45
2023-02-21T02:23:16.277Z,28.10
2023-02-21T02:26:05.421Z,28.98
2023-02-21T02:28:39.496Z,29.33
2023-02-21T02:31:37.578Z,29.86
2023-02-21T02:34:36.878Z,30.52
2023-02-21T02:37:33.608Z,31.52
2023-02-21T02:40:25.942Z,31.14
2023-02-21T02:43:36.165Z,31.42
2023-02-21T02:46:22.470Z,30.55
2023-02-21T02:49:02.959Z,30.65
2023-02-21T02:51:35.983Z,29.87
2023-02-21T02:54:09.325Z,30.54
2023-02-21T02:56:40.572Z,30.50
2023-02-21T02:59:14.510Z,31.49
2023-02-21T03:01:51.633Z,30.15
2023-02-21T03:04:47.366Z,30.15
2023-02-21T03:07:45.242Z,29.28
2023-02-21T03:10:26.426Z,28.99
2023-02-21T03:13:07.486Z,29.86
2023-02-21T03:15:44.531Z,30.73
2023-02-21T03:18:21.118Z,29.80
2023-02-21T03:20:58.939Z,29.65
2023-02-21T03:23:32.259Z,29.79
2023-02-21T03:26:12.308Z,29.67
2023-02-21T03:28:47.871Z,28.83
2023-02-21T03:31:22.287Z,29.21
2023-02-21T03:33:53.963Z,28.52
2023-02-21T03:36:24.511Z,28.71
2023-02-21T03:38:55.810Z,28.92
2023-02-21T03:41:28.224Z,29.01
2023-02-21T03:43:59.605Z,28.91
2023-02-21T03:46:31.314Z,28.92
2023-02-21T03:49:03.211Z,28.97
2023-02-21T03:51:34.542Z,28.81
2023-02-21T03:54:05.797Z,28.22
2023-02-21T03:56:43.744Z,29.72
2023-02-21T03:59:24.329Z,29.54
2023-02-21T04:01:56.519Z,29.39
2023-02-21T04:04:29.587Z,29.25
2023-02-21T04:07:09.920Z,29.71
2023-02-21T04:09:41.145Z,29.67
2023-02-21T04:12:14.437Z,28.98
2023-02-21T04:14:45.651Z,29.82
2023-02-21T04:17:17.802Z,29.40
2023-02-21T04:19:49.693Z,29.24
2023-02-21T04:22:21.241Z,29.66
2023-02-21T04:24:52.823Z,28.69
2023-02-21T04:27:25.998Z,29.23
2023-02-21T04:29:59.819Z,29.24
2023-02-21T04:32:33.214Z,28.44
2023-02-21T04:35:10.173Z,27.72
2023-02-21T04:37:41.721Z,27.81
2023-02-21T04:40:13.816Z,27.79
2023-02-21T04:42:44.815Z,27.48
2023-02-21T04:45:15.952Z,27.80
2023-02-21T04:47:47.163Z,27.34
2023-02-21T04:50:18.707Z,27.95
2023-02-21T04:52:50.247Z,28.38
2023-02-21T04:55:21.511Z,28.18
2023-02-21T04:57:52.561Z,28.05
2023-02-21T05:00:23.760Z,27.67
2023-02-21T05:02:55.179Z,27.20
2023-02-21T05:05:25.856Z,26.98
2023-02-21T05:07:57.724Z,27.35
2023-02-21T05:10:43.530Z,26.95
2023-02-21T05:13:17.126Z,26.69
2023-02-21T05:15:48.668Z,27.17
2023-02-21T05:18:24.756Z,26.97
2023-02-21T05:20:55.969Z,26.98
2023-02-21T05:23:37.171Z,27.11
2023-02-21T05:26:15.666Z,27.04
2023-02-21T05:28:47.404Z,26.10
2023-02-21T05:31:19.031Z,26.54
2023-02-21T05:33:50.685Z,26.57
2023-02-21T05:36:21.359Z,26.78
2023-02-21T05:38:54.765Z,26.70
2023-02-21T05:41:26.406Z,26.90
2023-02-21T05:43:57.634Z,26.05
2023-02-21T05:46:33.851Z,26.41
2023-02-21T05:49:06.459Z,26.40
2023-02-21T05:51:39.448Z,26.70
2023-02-21T05:54:12.297Z,25.72
2023-02-21T05:56:44.777Z,26.16
2023-02-21T05:59:16.921Z,25.95
2023-02-21T06:01:49.072Z,25.87
2023-02-21T06:04:20.553Z,26.16
2023-02-21T06:06:52.295Z,26.26
2023-02-21T06:09:23.514Z,25.74
2023-02-21T06:11:58.834Z,25.89
2023-02-21T06:14:30.122Z,25.55
2023-02-21T06:17:02.227Z,25.77
2023-02-21T06:19:34.050Z,25.93
2023-02-21T06:22:04.756Z,24.96
2023-02-21T06:24:36.123Z,25.29
2023-02-21T06:27:07.508Z,24.40
2023-02-21T06:29:38.578Z,24.50
2023-02-21T06:32:10.208Z,24.43
2023-02-21T06:34:41.694Z,24.08
2023-02-21T06:37:13.047Z,24.15
2023-02-21T06:39:44.517Z,23.93
2023-02-21T06:42:20.157Z,24.00
2023-02-21T06:44:52.407Z,23.91
2023-02-21T06:47:23.827Z,23.79
2023-02-21T06:49:55.015Z,23.61
2023-02-21T06:52:26.123Z,23.63
2023-02-21T06:54:57.325Z,23.14
2023-02-21T06:57:28.558Z,22.97
2023-02-21T06:59:59.676Z,22.96
2023-02-21T07:02:31.560Z,22.82
2023-02-21T07:05:02.439Z,22.77
2023-02-21T07:07:33.712Z,22.62
2023-02-21T07:10:04.849Z,22.44
2023-02-21T07:12:35.981Z,22.51
2023-02-21T07:15:07.573Z,22.36
2023-02-21T07:17:38.624Z,22.36
2023-02-21T07:20:10.961Z,22.28
2023-02-21T07:22:41.455Z,22.19
2023-02-21T07:25:18.082Z,22.40
2023-02-21T07:27:50.971Z,22.46
2023-02-21T07:30:22.404Z,22.32
2023-02-21T07:33:02.005Z,22.33
2023-02-21T07:35:33.260Z,22.21
2023-02-21T07:38:04.139Z,22.08
2023-02-21T07:40:35.513Z,21.97
2023-02-21T07:43:06.652Z,21.94
2023-02-21T07:45:37.559Z,21.91
2023-02-21T07:48:08.668Z,21.89
2023-02-21T07:50:39.685Z,21.74
2023-02-21T07:53:11.391Z,21.87
2023-02-21T07:55:41.766Z,21.75
2023-02-21T07:58:12.705Z,21.61
2023-02-21T08:00:43.881Z,21.52
2023-02-21T08:03:15.921Z,21.72
2023-02-21T08:05:48.305Z,21.78
2023-02-21T08:08:19.496Z,21.75
2023-02-21T08:10:51.242Z,21.72
2023-02-21T08:13:22.672Z,21.55
2023-02-21T08:15:53.916Z,21.52
2023-02-21T08:18:26.202Z,21.53
2023-02-21T08:20:58.842Z,21.46
2023-02-21T08:23:30.047Z,21.37
2023-02-21T08:26:01.070Z,21.36
2023-02-21T08:28:32.424Z,21.39
2023-02-21T08:31:03.399Z,21.26
2023-02-21T08:33:34.445Z,21.17
2023-02-21T08:36:05.843Z,21.22
2023-02-21T08:38:38.902Z,21.11
2023-02-21T08:41:11.904Z,20.89
2023-02-21T08:43:43.088Z,20.94
2023-02-21T08:46:14.192Z,21.07
2023-02-21T08:48:45.563Z,20.71
2023-02-21T08:51:17.070Z,20.56
2023-02-21T08:53:48.618Z,20.73
2023-02-21T08:56:27.447Z,20.63
2023-02-21T08:58:58.912Z,20.91
2023-02-21T09:01:35.532Z,20.79
2023-02-21T09:04:07.564Z,20.75
2023-02-21T09:06:37.941Z,20.57
2023-02-21T09:09:09.319Z,20.39
2023-02-21T09:11:40.215Z,20.69
2023-02-21T09:14:11.091Z,20.43
2023-02-21T09:16:42.183Z,20.51
2023-02-21T09:19:14.875Z,20.31
2023-02-21T09:21:49.814Z,20.58
2023-02-21T09:24:26.576Z,20.63
2023-02-21T09:27:05.084Z,20.43
2023-02-21T09:29:45.943Z,20.30
2023-02-21T09:32:17.928Z,20.39
2023-02-21T09:34:48.835Z,20.37
2023-02-21T09:37:19.835Z,20.23
2023-02-21T09:39:50.930Z,20.29
2023-02-21T09:42:25.102Z,20.36
2023-02-21T09:44:56.415Z,20.40
2023-02-21T09:47:32.395Z,20.30
2023-02-21T09:50:11.726Z,20.31
2023-02-21T09:52:44.277Z,20.29
2023-02-21T09:55:37.603Z,20.13
2023-02-21T09:58:15.204Z,20.19
2023-02-21T10:00:46.974Z,20.05
2023-02-21T10:03:33.077Z,20.22
2023-02-21T10:06:16.459Z,20.22
2023-02-21T10:09:18.617Z,20.07
2023-02-21T10:11:56.566Z,20.34
2023-02-21T10:15:05.798Z,19.92
2023-02-21T10:18:02.219Z,20.25
2023-02-21T10:20:41.956Z,20.30
2023-02-21T10:23:34.780Z,20.01
2023-02-21T10:26:14.306Z,20.14
2023-02-21T10:28:46.194Z,20.05
2023-02-21T10:31:20.512Z,20.15
2023-02-21T10:33:51.843Z,20.18
2023-02-21T10:36:24.952Z,20.02
2023-02-21T10:39:11.068Z,20.11
2023-02-21T10:41:43.491Z,19.98
2023-02-21T10:44:26.526Z,19.92
2023-02-21T10:47:26.012Z,19.88
2023-02-21T10:50:09.163Z,19.88
2023-02-21T10:52:52.844Z,19.74
2023-02-21T10:55:32.887Z,19.56
2023-02-21T10:58:21.338Z,19.61
2023-02-21T11:00:54.306Z,19.50
2023-02-21T11:03:30.578Z,19.63
2023-02-21T11:06:04.042Z,19.63
2023-02-21T11:08:46.022Z,19.29
2023-02-21T11:11:17.568Z,19.25
2023-02-21T11:13:48.555Z,19.32
2023-02-21T11:16:23.541Z,19.25
2023-02-21T11:19:07.998Z,19.49
2023-02-21T11:21:39.030Z,19.30
2023-02-21T11:24:13.464Z,19.28
2023-02-21T11:26:51.116Z,19.52
2023-02-21T11:29:28.515Z,19.26
2023-02-21T11:31:59.595Z,19.20
2023-02-21T11:34:32.587Z,19.24
2023-02-21T11:37:07.318Z,18.98
2023-02-21T11:39:38.806Z,19.11
2023-02-21T11:42:32.634Z,19.20
2023-02-21T11:45:14.999Z,18.70
2023-02-21T11:47:49.240Z,18.91
2023-02-21T11:50:34.512Z,18.99
2023-02-21T11:53:31.378Z,18.83
2023-02-21T11:56:23.883Z,18.82
2023-02-21T11:59:24.302Z,18.58
2023-02-21T12:02:38.387Z,18.72
2023-02-21T12:05:18.931Z,18.69
2023-02-21T12:08:21.885Z,18.68
2023-02-21T12:11:19.074Z,18.80
2023-02-21T12:14:05.264Z,18.80
2023-02-21T12:16:44.522Z,18.62
2023-02-21T12:19:33.738Z,18.50
2023-02-21T12:22:06.851Z,18.47
2023-02-21T12:24:57.399Z,18.52
2023-02-21T12:27:53.034Z,18.56
2023-02-21T12:30:48.436Z,18.42
2023-02-21T12:33:41.396Z,18.33
2023-02-21T12:36:17.108Z,18.17
2023-02-21T12:38:56.299Z,18.08
2023-02-21T12:42:02.568Z,18.03
2023-02-21T12:44:59.102Z,18.15
2023-02-21T12:47:41.231Z,18.08
2023-02-21T12:50:23.285Z,18.23
2023-02-21T12:53:05.864Z,18.24
2023-02-21T12:55:49.506Z,18.19
2023-02-21T12:58:47.965Z,18.30
2023-02-21T13:01:27.715Z,18.48
2023-02-21T13:04:34.818Z,18.48
2023-02-21T13:07:26.874Z,18.45
2023-02-21T13:10:07.091Z,18.68
2023-02-21T13:12:41.764Z,18.44
2023-02-21T13:15:23.507Z,18.51
2023-02-21T13:17:59.692Z,18.52
2023-02-21T13:20:38.696Z,18.55
2023-02-21T13:23:51.853Z,18.57
2023-02-21T13:27:20.263Z,18.46
2023-02-21T13:29:52.354Z,18.51
2023-02-21T13:32:23.864Z,18.44
2023-02-21T13:35:02.116Z,18.69
2023-02-21T13:37:35.921Z,18.53
2023-02-21T13:40:22.746Z,18.65
2023-02-21T13:43:08.153Z,18.62
2023-02-21T13:45:40.735Z,18.50
2023-02-21T13:48:13.264Z,18.49
2023-02-21T13:50:57.776Z,18.66
2023-02-21T13:53:36.822Z,18.52
2023-02-21T13:56:11.017Z,18.34
2023-02-21T13:58:52.035Z,18.22
2023-02-21T14:01:31.953Z,18.33
2023-02-21T14:04:02.905Z,18.26
2023-02-21T14:06:38.774Z,18.19
2023-02-21T14:09:17.827Z,18.14
2023-02-21T14:11:54.068Z,18.03
2023-02-21T14:14:31.933Z,18.06
2023-02-21T14:17:05.977Z,17.98
2023-02-21T14:19:46.566Z,18.07
2023-02-21T14:22:27.435Z,18.00
2023-02-21T14:25:20.128Z,17.98
2023-02-21T14:27:54.774Z,17.81
2023-02-21T14:30:28.054Z,17.82
2023-02-21T14:33:09.277Z,17.80
2023-02-21T14:35:49.874Z,17.88
2023-02-21T14:38:29.319Z,17.87
2023-02-21T14:41:28.845Z,17.78
2023-02-21T14:44:32.090Z,17.59
2023-02-21T14:47:27.059Z,17.49
2023-02-21T14:50:13.605Z,17.71
2023-02-21T14:53:01.778Z,17.72
2023-02-21T14:56:04.949Z,17.52
2023-02-21T14:59:05.795Z,17.77
2023-02-21T15:01:44.371Z,17.65
2023-02-21T15:04:30.410Z,17.39
2023-02-21T15:07:20.357Z,17.54
2023-02-21T15:10:24.852Z,17.47
2023-02-21T15:12:59.327Z,17.47
2023-02-21T15:15:37.899Z,17.33
2023-02-21T15:18:12.340Z,17.41
2023-02-21T15:20:44.704Z,17.22
2023-02-21T15:23:18.233Z,17.46
2023-02-21T15:25:57.916Z,17.23
2023-02-21T15:28:34.919Z,16.91
2023-02-21T15:31:11.552Z,16.81
2023-02-21T15:33:44.591Z,16.72
2023-02-21T15:36:22.947Z,16.77
2023-02-21T15:39:25.172Z,16.75
2023-02-21T15:42:01.134Z,16.66
2023-02-21T15:44:57.689Z,16.47
2023-02-21T15:47:31.876Z,16.38
2023-02-21T15:50:31.729Z,16.43
2023-02-21T15:53:15.933Z,16.33
2023-02-21T15:55:48.114Z,16.27
2023-02-21T15:58:20.826Z,16.60
2023-02-21T16:01:12.610Z,16.35
2023-02-21T16:03:44.022Z,16.52
2023-02-21T16:06:24.285Z,16.60
2023-02-21T16:09:00.358Z,16.55
2023-02-21T16:11:51.043Z,16.55
2023-02-21T16:14:33.318Z,16.58
2023-02-21T16:17:23.216Z,16.47
2023-02-21T16:19:57.915Z,16.43
2023-02-21T16:22:59.274Z,16.50
2023-02-21T16:25:27.935Z,16.41
2023-02-21T16:28:01.858Z,16.27
2023-02-21T16:30:36.789Z,16.31
2023-02-21T16:33:08.419Z,16.33
2023-02-21T16:35:39.833Z,16.44
2023-02-21T16:38:18.153Z,16.42
2023-02-21T16:40:49.865Z,16.48
2023-02-21T16:43:26.570Z,16.37
2023-02-21T16:46:01.443Z,16.33
2023-02-21T16:48:36.054Z,16.34
2023-02-21T16:51:11.993Z,16.25
2023-02-21T16:53:43.570Z,16.22
2023-02-21T16:56:14.744Z,16.31
2023-02-21T16:58:51.398Z,16.23
2023-02-21T17:01:37.871Z,16.27
2023-02-21T17:04:28.778Z,16.09
2023-02-21T17:07:05.951Z,16.21
2023-02-21T17:09:40.694Z,16.28
2023-02-21T17:12:14.815Z,16.37
2023-02-21T17:14:46.345Z,16.18
2023-02-21T17:17:19.229Z,16.16
2023-02-21T17:19:50.521Z,16.14
2023-02-21T17:22:21.723Z,16.04
2023-02-21T17:24:52.800Z,16.11
2023-02-21T17:27:24.046Z,16.10
2023-02-21T17:29:55.487Z,16.02
2023-02-21T17:32:28.536Z,15.97
2023-02-21T17:35:00.066Z,15.82
2023-02-21T17:37:33.093Z,15.90
2023-02-21T17:40:04.818Z,15.95
2023-02-21T17:42:36.323Z,15.96
2023-02-21T17:45:09.941Z,15.86
2023-02-21T17:47:41.337Z,15.75
2023-02-21T17:50:12.532Z,15.65
2023-02-21T17:52:43.927Z,15.46
2023-02-21T17:55:22.935Z,15.44
2023-02-21T17:57:54.623Z,15.76
2023-02-21T18:00:26.566Z,15.82
2023-02-21T18:02:58.637Z,15.86
2023-02-21T18:05:31.612Z,15.73
2023-02-21T18:08:02.645Z,15.67
2023-02-21T18:10:35.045Z,15.69
2023-02-21T18:13:06.307Z,15.63
2023-02-21T18:15:37.828Z,15.83
2023-02-21T18:18:09.059Z,15.84
2023-02-21T18:20:39.811Z,15.92
2023-02-21T18:23:10.724Z,16.03
2023-02-21T18:25:41.845Z,16.01
2023-02-21T18:28:13.710Z,16.10
2023-02-21T18:30:45.124Z,15.95
2023-02-21T18:33:17.401Z,16.10
2023-02-21T18:35:48.291Z,15.92
2023-02-21T18:38:19.690Z,16.14
2023-02-21T18:40:50.831Z,16.44
2023-02-21T18:43:27.172Z,16.91
2023-02-21T18:45:59.404Z,16.99
2023-02-21T18:48:30.696Z,17.50
2023-02-21T18:51:01.766Z,17.68
2023-02-21T18:53:33.006Z,17.47
2023-02-21T18:56:06.405Z,17.23
2023-02-21T18:58:38.250Z,17.67
2023-02-21T19:01:11.715Z,17.69
2023-02-21T19:03:43.369Z,17.89
2023-02-21T19:06:15.250Z,17.81
2023-02-21T19:08:51.817Z,18.36
2023-02-21T19:11:23.232Z,18.42
2023-02-21T19:13:54.408Z,18.13
2023-02-21T19:16:26.973Z,18.05
2023-02-21T19:18:59.598Z,17.83
2023-02-21T19:21:31.281Z,17.67
2023-02-21T19:24:03.240Z,17.86
2023-02-21T19:26:33.682Z,18.21
2023-02-21T19:29:04.866Z,18.12
2023-02-21T19:31:36.586Z,18.34
2023-02-21T19:34:08.465Z,18.29
2023-02-21T19:36:40.442Z,18.36
2023-02-21T19:39:13.237Z,18.55
2023-02-21T19:41:44.386Z,18.46
2023-02-21T19:44:16.242Z,18.47
2023-02-21T19:46:47.283Z,18.78
2023-02-21T19:49:23.264Z,19.06
2023-02-21T19:51:56.062Z,18.75
2023-02-21T19:54:31.409Z,18.69
2023-02-21T19:57:02.785Z,18.77
2023-02-21T19:59:35.304Z,19.60
2023-02-21T20:02:06.428Z,19.61
2023-02-21T20:04:37.657Z,20.07
2023-02-21T20:07:08.936Z,20.56
2023-02-21T20:09:40.358Z,20.29
2023-02-21T20:12:13.097Z,20.67
2023-02-21T20:14:47.454Z,21.49
2023-02-21T20:17:19.525Z,22.04
2023-02-21T20:19:50.634Z,21.73
2023-02-21T20:22:21.702Z,21.73
2023-02-21T20:24:52.826Z,21.92
2023-02-21T20:27:24.052Z,22.30
2023-02-21T20:29:54.994Z,21.76
2023-02-21T20:32:27.086Z,21.55
2023-02-21T20:34:58.752Z,21.77
2023-02-21T20:37:32.657Z,21.98
2023-02-21T20:40:07.014Z,21.88
2023-02-21T20:42:38.203Z,21.85
2023-02-21T20:45:11.968Z,21.75
2023-02-21T20:47:43.138Z,21.90
2023-02-21T20:50:14.408Z,22.16
2023-02-21T20:52:45.501Z,22.93
2023-02-21T20:55:26.650Z,22.89
2023-02-21T20:57:57.742Z,22.68
2023-02-21T21:00:31.630Z,23.46
2023-02-21T21:03:02.787Z,23.26
2023-02-21T21:05:34.156Z,23.65
2023-02-21T21:08:05.276Z,23.48
2023-02-21T21:10:36.444Z,23.46
2023-02-21T21:13:07.997Z,23.68
2023-02-21T21:15:39.118Z,23.59
2023-02-21T21:18:11.669Z,23.49
2023-02-21T21:20:42.808Z,23.11
2023-02-21T21:23:14.028Z,23.22
2023-02-21T21:25:45.119Z,23.08
2023-02-21T21:28:16.615Z,23.72
2023-02-21T21:30:48.427Z,23.36
2023-02-21T21:33:21.013Z,23.40
2023-02-21T21:35:54.121Z,23.64
2023-02-21T21:38:27.873Z,23.59
2023-02-21T21:40:59.298Z,23.97
2023-02-21T21:43:30.386Z,23.90
2023-02-21T21:46:01.510Z,24.05
2023-02-21T21:48:32.524Z,23.67
2023-02-21T21:51:05.105Z,22.95
2023-02-21T21:53:36.034Z,23.69
2023-02-21T21:56:07.214Z,24.00
2023-02-21T21:58:38.224Z,24.83
2023-02-21T22:01:09.072Z,24.91
2023-02-21T22:03:40.243Z,25.50
2023-02-21T22:06:12.453Z,26.47
2023-02-21T22:08:43.586Z,26.33
2023-02-21T22:11:14.490Z,26.45
2023-02-21T22:13:45.703Z,25.17
2023-02-21T22:16:16.933Z,24.94
2023-02-21T22:18:48.328Z,25.34
2023-02-21T22:21:19.468Z,24.72
2023-02-21T22:23:52.990Z,24.84
2023-02-21T22:26:24.614Z,24.40
2023-02-21T22:28:56.080Z,24.50
2023-02-21T22:31:28.682Z,24.68
2023-02-21T22:34:03.423Z,24.56
2023-02-21T22:36:38.225Z,24.19
2023-02-21T22:39:12.511Z,24.45
2023-02-21T22:41:45.486Z,24.12
2023-02-21T22:44:18.065Z,24.20
2023-02-21T22:47:01.286Z,24.23
2023-02-21T22:49:32.920Z,24.40
2023-02-21T22:52:05.509Z,24.48
2023-02-21T22:54:37.659Z,24.15
2023-02-21T22:57:09.066Z,23.96
2023-02-21T22:59:40.150Z,24.66
2023-02-21T23:02:11.367Z,24.94
2023-02-21T23:04:42.565Z,24.99
2023-02-21T23:09:44.286Z,24.77
2023-02-21T23:12:16.459Z,24.32
2023-02-21T23:14:49.596Z,24.49
2023-02-21T23:17:20.648Z,24.62
2023-02-21T23:19:51.744Z,24.76
2023-02-21T23:22:22.711Z,24.07
2023-02-21T23:24:53.648Z,24.04
2023-02-21T23:27:24.798Z,23.50
2023-02-21T23:29:55.986Z,23.97
2023-02-21T23:32:26.900Z,23.91
2023-02-21T23:34:57.952Z,23.61
2023-02-21T23:37:28.802Z,23.53
2023-02-21T23:39:59.688Z,23.63
2023-02-21T23:42:33.008Z,23.32
2023-02-21T23:45:03.913Z,23.19
2023-02-21T23:47:35.008Z,22.56
2023-02-21T23:50:09.039Z,22.65
2023-02-21T23:52:39.866Z,22.56
2023-02-21T23:55:10.920Z,22.10
2023-02-21T23:57:44.474Z,20.98
